Time;durP1;ratioP1;P1;durP2;ratioP2;P2;SDS_P1;SDS_P2;PMS_P1;PMS_P2;Temp;Humidity;BMP_temperature;BMP_pressure;BME280_temperature;BME280_humidity;BME280_pressure;Samples;Min_cycle;Max_cycle;Signal;HPM_P1;HPM_P2
2024/04/22 00:01:32;;;;;;;3.95;2.28;;;7.30;97.50;;;;;;5314442;26;20321;-81
2024/04/22 00:03:58;;;;;;;2.63;2.00;;;7.30;97.60;;;;;;5352860;26;20061;-81
2024/04/22 00:06:24;;;;;;;3.85;2.38;;;7.30;97.60;;;;;;5289662;26;20073;-82
2024/04/22 00:08:49;;;;;;;2.38;2.10;;;7.40;97.50;;;;;;5320770;26;19996;-81
2024/04/22 00:11:15;;;;;;;3.22;2.47;;;7.30;97.50;;;;;;5280122;26;20004;-81
2024/04/22 00:13:41;;;;;;;3.88;2.63;;;7.30;97.50;;;;;;5328542;26;20058;-81
2024/04/22 00:16:06;;;;;;;3.50;2.58;;;7.30;97.50;;;;;;5340657;26;20033;-82
2024/04/22 00:18:33;;;;;;;2.70;2.35;;;7.20;97.60;;;;;;5317344;26;20000;-82
2024/04/22 00:20:58;;;;;;;2.92;2.15;;;7.20;97.60;;;;;;5330394;26;20008;-82
2024/04/22 00:23:24;;;;;;;4.22;2.60;;;7.20;97.60;;;;;;5318507;26;20029;-82
2024/04/22 00:25:52;;;;;;;2.58;1.90;;;7.20;97.70;;;;;;5332656;26;19993;-81
2024/04/22 00:28:17;;;;;;;4.10;2.13;;;7.20;97.70;;;;;;5278268;26;20436;-82
2024/04/22 00:30:43;;;;;;;2.60;1.88;;;7.20;97.70;;;;;;5383264;26;20004;-82
2024/04/22 00:33:09;;;;;;;3.85;2.38;;;7.20;97.70;;;;;;5352352;26;20578;-82
2024/04/22 00:35:35;;;;;;;2.78;2.03;;;7.20;97.60;;;;;;5378430;26;20006;-82
2024/04/22 00:38:02;;;;;;;3.60;2.63;;;7.20;97.60;;;;;;5354050;26;19997;-81
2024/04/22 00:40:27;;;;;;;5.07;2.75;;;7.10;97.60;;;;;;5316138;26;20451;-82
2024/04/22 00:42:53;;;;;;;3.17;2.17;;;7.10;97.60;;;;;;5324380;26;19996;-82
2024/04/22 00:45:19;;;;;;;2.40;2.13;;;7.10;97.60;;;;;;5326101;26;20078;-82
2024/04/22 00:47:45;;;;;;;3.10;2.22;;;7.20;97.60;;;;;;5331629;26;20070;-82
2024/04/22 00:50:13;;;;;;;2.58;2.17;;;7.20;97.70;;;;;;5307713;26;20016;-82
2024/04/22 00:52:39;;;;;;;2.55;2.10;;;7.10;97.60;;;;;;5329613;26;20032;-81
2024/04/22 00:55:06;;;;;;;3.10;2.42;;;7.20;97.70;;;;;;5371802;26;20012;-82
2024/04/22 00:57:32;;;;;;;2.88;2.17;;;7.10;97.60;;;;;;5351296;26;19997;-81
2024/04/22 00:59:58;;;;;;;2.67;2.30;;;7.10;97.60;;;;;;5344255;26;19993;-82
2024/04/22 01:02:24;;;;;;;3.72;2.35;;;7.10;97.60;;;;;;5297303;26;20001;-81
2024/04/22 01:04:50;;;;;;;3.60;2.05;;;7.10;97.70;;;;;;5321431;26;20015;-81
2024/04/22 01:07:16;;;;;;;2.33;1.83;;;7.20;97.70;;;;;;5316248;26;20452;-81
2024/04/22 01:09:42;;;;;;;2.40;2.00;;;7.10;97.60;;;;;;5350318;26;20030;-81
2024/04/22 01:12:08;;;;;;;3.85;2.20;;;7.10;97.60;;;;;;5364674;26;20008;-81
2024/04/22 01:14:33;;;;;;;3.67;2.60;;;7.10;97.70;;;;;;5394635;26;19993;-81
2024/04/22 01:17:03;;;;;;;2.47;1.90;;;7.10;97.70;;;;;;5323608;26;20011;-83
2024/04/22 01:19:31;;;;;;;5.72;2.28;;;7.00;97.70;;;;;;5355833;26;20000;-79
2024/04/22 01:21:57;;;;;;;4.22;2.17;;;7.00;97.70;;;;;;5324402;26;20000;-81
2024/04/22 01:24:23;;;;;;;3.67;2.40;;;7.00;97.70;;;;;;5333552;26;20000;-81
2024/04/22 01:26:51;;;;;;;3.00;2.38;;;7.00;97.80;;;;;;5341030;26;20334;-81
2024/04/22 01:29:20;;;;;;;2.45;2.00;;;7.00;97.80;;;;;;5383052;26;19996;-81
2024/04/22 01:31:45;;;;;;;2.83;2.05;;;7.00;97.80;;;;;;5317057;26;20017;-81
2024/04/22 01:34:11;;;;;;;2.65;2.10;;;7.00;97.80;;;;;;5298381;26;20069;-81
2024/04/22 01:36:40;;;;;;;2.97;2.05;;;7.10;97.80;;;;;;5283092;27;19994;-81
2024/04/22 01:39:08;;;;;;;4.65;2.30;;;7.00;97.80;;;;;;5329619;26;20428;-81
2024/04/22 01:41:33;;;;;;;3.00;2.33;;;7.00;97.80;;;;;;5311651;27;20002;-81
2024/04/22 01:43:59;;;;;;;3.58;2.05;;;7.00;97.80;;;;;;5309973;26;20013;-81
2024/04/22 01:46:25;;;;;;;3.08;2.30;;;7.00;97.90;;;;;;5266037;27;19997;-81
2024/04/22 01:48:50;;;;;;;3.55;2.25;;;6.90;97.90;;;;;;5314985;26;20010;-81
2024/04/22 01:51:16;;;;;;;2.80;2.30;;;6.90;97.90;;;;;;5347446;26;20355;-82
2024/04/22 01:53:42;;;;;;;3.83;2.33;;;6.90;97.90;;;;;;5339615;26;20013;-81
2024/04/22 01:56:07;;;;;;;3.20;2.00;;;6.80;98.00;;;;;;5333978;26;20151;-81
2024/04/22 01:58:33;;;;;;;2.92;2.13;;;6.80;98.00;;;;;;5299455;26;20049;-81
2024/04/22 02:01:05;;;;;;;2.20;1.95;;;6.80;98.10;;;;;;5313096;26;20453;-82
2024/04/22 02:03:30;;;;;;;2.30;1.73;;;6.80;98.10;;;;;;5340252;26;20001;-81
2024/04/22 02:05:58;;;;;;;2.88;2.10;;;6.80;98.10;;;;;;5275380;26;19997;-82
2024/04/22 02:08:24;;;;;;;3.67;1.83;;;6.80;98.10;;;;;;5261440;27;20001;-81
2024/04/22 02:10:52;;;;;;;4.20;2.42;;;6.70;98.10;;;;;;5297949;27;20306;-81
2024/04/22 02:13:18;;;;;;;2.63;1.83;;;6.70;98.20;;;;;;5272907;26;20012;-81
2024/04/22 02:15:43;;;;;;;3.88;2.25;;;6.70;98.20;;;;;;5324707;26;20037;-81
2024/04/22 02:18:09;;;;;;;3.53;2.08;;;6.70;98.20;;;;;;5296009;27;20488;-81
2024/04/22 02:20:35;;;;;;;3.03;2.33;;;6.70;98.30;;;;;;5323367;26;20425;-81
2024/04/22 02:23:01;;;;;;;2.88;2.08;;;6.70;98.30;;;;;;5345617;26;20012;-81
2024/04/22 02:25:27;;;;;;;2.40;2.10;;;6.70;98.30;;;;;;5328683;26;20012;-81
2024/04/22 02:27:53;;;;;;;2.63;2.10;;;6.60;98.30;;;;;;5332278;26;20002;-82
2024/04/22 02:30:19;;;;;;;3.80;1.90;;;6.60;98.30;;;;;;5320727;26;19998;-82
2024/04/22 02:32:45;;;;;;;2.53;2.00;;;6.70;98.30;;;;;;5335911;26;20004;-82
2024/04/22 02:35:10;;;;;;;4.20;2.47;;;6.60;98.30;;;;;;5347882;26;20009;-81
2024/04/22 02:37:36;;;;;;;3.50;2.35;;;6.60;98.30;;;;;;5370934;26;20017;-83
2024/04/22 02:40:01;;;;;;;2.97;2.35;;;6.60;98.40;;;;;;5347836;26;19997;-83
2024/04/22 02:42:27;;;;;;;3.38;2.30;;;6.50;98.40;;;;;;5341247;26;20013;-82
2024/04/22 02:44:53;;;;;;;2.72;2.30;;;6.50;98.40;;;;;;5318042;26;19988;-82
2024/04/22 02:47:18;;;;;;;4.22;2.15;;;6.50;98.50;;;;;;5318889;26;20101;-83
2024/04/22 02:49:44;;;;;;;3.35;2.45;;;6.40;98.50;;;;;;5318667;26;20033;-82
2024/04/22 02:52:09;;;;;;;3.17;2.38;;;6.40;98.50;;;;;;5337347;26;20004;-82
2024/04/22 02:54:35;;;;;;;4.15;2.40;;;6.40;98.60;;;;;;5305273;26;20012;-82
2024/04/22 02:57:01;;;;;;;4.35;2.40;;;6.40;98.60;;;;;;5316514;26;20011;-82
2024/04/22 02:59:28;;;;;;;2.75;2.28;;;6.30;98.60;;;;;;5274164;26;20008;-82
2024/04/22 03:01:53;;;;;;;4.75;2.58;;;6.40;98.70;;;;;;5363740;26;20526;-82
2024/04/22 03:04:19;;;;;;;3.13;2.13;;;6.40;98.70;;;;;;5323237;26;20005;-82
2024/04/22 03:06:46;;;;;;;2.58;2.30;;;6.30;98.70;;;;;;5305958;26;20005;-82
2024/04/22 03:09:12;;;;;;;3.17;2.47;;;6.20;98.70;;;;;;5301683;26;20015;-82
2024/04/22 03:11:38;;;;;;;4.63;2.40;;;6.30;98.80;;;;;;5340811;26;20036;-82
2024/04/22 03:14:03;;;;;;;3.03;2.40;;;6.20;98.70;;;;;;5292836;26;20004;-82
2024/04/22 03:16:29;;;;;;;2.47;2.15;;;6.20;98.80;;;;;;5343959;26;20005;-81
2024/04/22 03:18:55;;;;;;;2.75;2.30;;;6.20;98.80;;;;;;5304930;26;20016;-82
2024/04/22 03:21:20;;;;;;;3.30;2.80;;;6.20;98.80;;;;;;5344619;26;20012;-82
2024/04/22 03:23:46;;;;;;;2.47;2.28;;;6.20;98.80;;;;;;5334952;26;20169;-82
2024/04/22 03:26:11;;;;;;;3.03;2.20;;;6.20;98.90;;;;;;5342458;26;19997;-82
2024/04/22 03:28:40;;;;;;;3.60;2.50;;;6.20;98.80;;;;;;5292020;26;19997;-82
2024/04/22 03:31:06;;;;;;;2.45;2.13;;;6.10;98.90;;;;;;5317927;26;20070;-82
2024/04/22 03:33:31;;;;;;;2.90;2.35;;;6.10;98.90;;;;;;5259347;26;20405;-81
2024/04/22 03:36:03;;;;;;;3.90;2.20;;;6.10;98.90;;;;;;5311443;26;20003;-82
2024/04/22 03:38:32;;;;;;;2.75;2.20;;;6.10;98.90;;;;;;5350241;26;20035;-82
2024/04/22 03:40:57;;;;;;;2.90;2.20;;;6.10;98.90;;;;;;5315073;26;19993;-82
2024/04/22 03:43:23;;;;;;;4.22;2.55;;;6.00;98.80;;;;;;5329672;26;20005;-82
2024/04/22 03:49:51;;;;;;;2.78;2.15;;;6.10;98.90;;;;;;5373767;26;20019;-81
2024/04/22 03:51:18;;;;;;;2.83;2.20;;;6.00;98.90;;;;;;5326119;26;20372;-82
2024/04/22 03:53:44;;;;;;;2.85;2.50;;;6.00;98.90;;;;;;5334247;26;20008;-82
2024/04/22 03:56:09;;;;;;;3.38;2.25;;;5.90;98.90;;;;;;5316588;26;20016;-82
2024/04/22 03:58:35;;;;;;;3.25;2.25;;;5.90;98.90;;;;;;5340622;26;20065;-82
2024/04/22 04:01:00;;;;;;;2.45;2.00;;;5.90;99.00;;;;;;5310504;26;20009;-80
2024/04/22 04:03:26;;;;;;;3.05;2.20;;;5.80;99.00;;;;;;5397946;26;20013;-82
2024/04/22 04:05:52;;;;;;;4.05;2.10;;;5.80;99.00;;;;;;5391948;26;20443;-82
2024/04/22 04:08:17;;;;;;;2.40;2.20;;;5.80;99.10;;;;;;5317191;26;19992;-82
2024/04/22 04:10:43;;;;;;;2.38;2.03;;;5.80;99.10;;;;;;5284448;26;20565;-81
2024/04/22 04:13:09;;;;;;;3.10;2.08;;;5.70;99.00;;;;;;5317528;26;20443;-81
2024/04/22 04:15:35;;;;;;;3.70;2.33;;;5.70;99.10;;;;;;5291550;26;20004;-82
2024/04/22 04:18:00;;;;;;;3.05;2.25;;;5.70;99.10;;;;;;5320269;26;20005;-82
2024/04/22 04:20:26;;;;;;;2.92;2.05;;;5.60;99.10;;;;;;5319606;26;20054;-82
2024/04/22 04:22:52;;;;;;;3.03;2.13;;;5.60;99.10;;;;;;5360979;26;20004;-82
2024/04/22 04:25:20;;;;;;;3.55;2.20;;;5.60;99.20;;;;;;5324500;26;19998;-82
2024/04/22 04:27:45;;;;;;;2.40;2.13;;;5.60;99.20;;;;;;5354022;26;19996;-82
2024/04/22 04:30:14;;;;;;;2.67;1.98;;;5.60;99.20;;;;;;5319036;26;20436;-83
2024/04/22 04:32:39;;;;;;;3.08;1.98;;;5.50;99.20;;;;;;5353677;26;19996;-82
2024/04/22 04:35:05;;;;;;;2.70;2.03;;;5.50;99.20;;;;;;5306153;26;20437;-82
2024/04/22 04:37:31;;;;;;;4.38;2.13;;;5.50;99.20;;;;;;5375995;26;20015;-82
2024/04/22 04:39:56;;;;;;;2.72;2.25;;;5.50;99.20;;;;;;5299160;26;20090;-81
2024/04/22 04:42:22;;;;;;;2.97;2.20;;;5.50;99.20;;;;;;5368799;26;19997;-81
2024/04/22 04:44:48;;;;;;;5.05;1.88;;;5.50;99.30;;;;;;5368313;26;20376;-81
2024/04/22 04:47:13;;;;;;;2.42;2.20;;;5.50;99.30;;;;;;5308167;26;19993;-81
2024/04/22 04:49:39;;;;;;;2.80;2.33;;;5.50;99.30;;;;;;5340051;26;20001;-81
2024/04/22 04:52:05;;;;;;;3.08;2.05;;;5.50;99.40;;;;;;5360243;26;20013;-81
2024/04/22 04:54:30;;;;;;;3.30;2.38;;;5.50;99.40;;;;;;5327573;26;20013;-81
2024/04/22 04:56:56;;;;;;;3.03;2.40;;;5.40;99.40;;;;;;5294294;26;20090;-81
2024/04/22 04:59:21;;;;;;;3.90;2.30;;;5.40;99.50;;;;;;5332889;26;20004;-81
2024/04/22 05:01:47;;;;;;;4.10;2.70;;;5.40;99.80;;;;;;5301255;26;20009;-81
2024/04/22 05:04:13;;;;;;;3.63;2.40;;;5.40;99.60;;;;;;5306995;26;19997;-82
2024/04/22 05:06:38;;;;;;;2.63;2.13;;;5.50;99.60;;;;;;5287598;26;20001;-82
2024/04/22 05:09:04;;;;;;;4.03;2.50;;;5.40;99.60;;;;;;5285121;26;19997;-82
2024/04/22 05:11:30;;;;;;;4.68;2.35;;;5.50;99.60;;;;;;5352333;26;20004;-81
2024/04/22 05:13:55;;;;;;;3.25;2.20;;;5.50;99.70;;;;;;5308181;26;20000;-81
2024/04/22 05:16:21;;;;;;;3.03;2.15;;;5.50;99.70;;;;;;5381509;26;20719;-81
2024/04/22 05:18:47;;;;;;;3.83;2.83;;;5.50;99.70;;;;;;5323075;26;20328;-81
2024/04/22 05:21:12;;;;;;;3.50;2.13;;;5.60;99.70;;;;;;5305223;26;20007;-82
2024/04/22 05:23:44;;;;;;;3.13;2.33;;;5.60;99.70;;;;;;5311898;26;19997;-81
2024/04/22 05:26:10;;;;;;;3.03;2.30;;;5.60;99.70;;;;;;5364182;26;19988;-81
2024/04/22 05:28:36;;;;;;;4.80;2.47;;;5.70;99.80;;;;;;5336293;26;19993;-82
2024/04/22 05:31:01;;;;;;;2.75;2.00;;;5.70;99.80;;;;;;5336244;26;20011;-81
2024/04/22 05:36:11;;;;;;;3.08;2.55;;;5.80;99.90;;;;;;5319745;26;20019;-81
2024/04/22 05:38:48;;;;;;;3.20;2.22;;;5.80;99.90;;;;;;5334608;26;20063;-82
2024/04/22 05:41:14;;;;;;;2.78;2.10;;;5.90;99.90;;;;;;5334571;26;19992;-82
2024/04/22 05:43:40;;;;;;;4.13;2.35;;;5.90;99.90;;;;;;5334619;26;20007;-81
2024/04/22 05:46:06;;;;;;;3.53;2.28;;;6.00;99.90;;;;;;5320479;26;20013;-81
2024/04/22 05:48:32;;;;;;;3.25;2.08;;;6.00;99.90;;;;;;5289755;26;20005;-81
2024/04/22 05:50:58;;;;;;;4.00;2.50;;;6.10;99.90;;;;;;5311093;26;20000;-81
2024/04/22 05:53:23;;;;;;;4.57;2.33;;;6.10;99.90;;;;;;5289250;26;20507;-81
2024/04/22 05:55:49;;;;;;;2.92;2.08;;;6.20;99.90;;;;;;5332015;26;20001;-81
2024/04/22 05:58:15;;;;;;;3.42;2.25;;;6.30;99.90;;;;;;5350795;26;19996;-82
2024/04/22 06:00:40;;;;;;;3.08;2.22;;;6.30;99.90;;;;;;5313717;26;20094;-82
2024/04/22 06:03:06;;;;;;;2.05;1.85;;;6.40;99.90;;;;;;5376741;26;20478;-81
2024/04/22 06:05:32;;;;;;;3.45;2.03;;;6.50;99.90;;;;;;5288247;26;20011;-82
2024/04/22 06:07:57;;;;;;;2.55;1.92;;;6.60;99.90;;;;;;5317039;26;19993;-82
2024/04/22 06:10:23;;;;;;;2.88;2.25;;;6.60;99.90;;;;;;5332620;26;20165;-82
2024/04/22 06:12:49;;;;;;;3.13;2.20;;;6.70;99.90;;;;;;5338434;26;20101;-82
2024/04/22 06:15:15;;;;;;;3.75;1.85;;;6.70;99.90;;;;;;5352080;26;19996;-81
2024/04/22 06:17:40;;;;;;;3.53;2.30;;;6.80;99.90;;;;;;5316724;26;19993;-82
2024/04/22 06:20:07;;;;;;;2.55;1.75;;;6.80;99.90;;;;;;5317488;26;19997;-82
2024/04/22 06:22:34;;;;;;;4.68;2.85;;;7.00;99.90;;;;;;5327226;26;19993;-82
2024/04/22 06:25:00;;;;;;;2.42;2.00;;;7.00;99.90;;;;;;5317464;26;20005;-81
2024/04/22 06:27:25;;;;;;;2.95;2.20;;;7.10;99.80;;;;;;5338245;26;20011;-81
2024/04/22 06:29:51;;;;;;;3.35;1.92;;;7.10;99.70;;;;;;5323054;26;20328;-82
2024/04/22 06:32:17;;;;;;;4.03;2.15;;;7.10;99.70;;;;;;5317430;26;20001;-81
2024/04/22 06:34:43;;;;;;;2.97;2.13;;;7.20;99.60;;;;;;5344187;26;19997;-82
2024/04/22 06:37:08;;;;;;;3.17;2.20;;;7.20;99.60;;;;;;5333997;26;20322;-82
2024/04/22 06:39:34;;;;;;;2.38;2.05;;;7.30;99.60;;;;;;5310355;26;20004;-82
2024/04/22 06:41:59;;;;;;;2.30;2.05;;;7.40;99.60;;;;;;5351977;26;20004;-81
2024/04/22 06:44:25;;;;;;;3.97;1.98;;;7.50;99.60;;;;;;5322634;26;20521;-82
2024/04/22 06:46:51;;;;;;;3.33;2.13;;;7.50;99.60;;;;;;5312476;26;20025;-83
2024/04/22 06:49:16;;;;;;;2.90;2.15;;;7.60;99.60;;;;;;5312736;26;20009;-83
2024/04/22 06:51:42;;;;;;;2.90;2.10;;;7.70;99.60;;;;;;5344428;26;19993;-82
2024/04/22 06:54:07;;;;;;;3.25;2.10;;;7.80;99.60;;;;;;5357279;26;20011;-82
2024/04/22 06:56:33;;;;;;;2.70;1.98;;;7.90;99.60;;;;;;5348200;26;20449;-81
2024/04/22 06:58:59;;;;;;;3.28;2.42;;;8.00;99.60;;;;;;5309905;26;20019;-82
2024/04/22 07:01:24;;;;;;;2.75;2.03;;;8.00;99.40;;;;;;5317025;26;19997;-82
2024/04/22 07:03:50;;;;;;;2.67;2.00;;;8.10;99.30;;;;;;5322163;26;20000;-82
2024/04/22 07:06:15;;;;;;;3.17;2.08;;;8.20;99.20;;;;;;5317688;26;19993;-82
2024/04/22 07:08:44;;;;;;;2.42;1.92;;;8.20;99.10;;;;;;5276583;26;20045;-82
2024/04/22 07:11:09;;;;;;;2.22;2.00;;;8.30;99.00;;;;;;5376094;26;20008;-82
2024/04/22 07:13:35;;;;;;;2.30;1.60;;;8.30;98.90;;;;;;5322360;26;20024;-81
2024/04/22 07:16:03;;;;;;;2.58;1.73;;;8.40;98.80;;;;;;5349367;26;20004;-82
2024/04/22 07:18:29;;;;;;;3.00;1.75;;;8.50;98.80;;;;;;5345844;26;20025;-82
2024/04/22 07:20:54;;;;;;;2.95;1.95;;;8.60;98.60;;;;;;5315366;26;20019;-82
2024/04/22 07:23:20;;;;;;;2.30;1.95;;;8.60;98.50;;;;;;5319915;26;20332;-82
2024/04/22 07:25:46;;;;;;;3.83;2.20;;;8.70;98.30;;;;;;5283085;26;20008;-82
2024/04/22 07:28:12;;;;;;;2.30;1.60;;;8.70;98.20;;;;;;5349896;26;20372;-82
2024/04/22 07:30:38;;;;;;;4.13;2.08;;;8.70;98.10;;;;;;5327074;26;20455;-82
2024/04/22 07:33:04;;;;;;;4.03;2.30;;;8.80;98.10;;;;;;5308230;26;19996;-82
2024/04/22 07:35:32;;;;;;;2.47;1.98;;;8.80;97.90;;;;;;5289551;26;20008;-81
2024/04/22 07:38:02;;;;;;;2.10;1.90;;;8.80;97.80;;;;;;5339837;26;20006;-82
2024/04/22 07:40:28;;;;;;;2.47;2.03;;;8.80;97.60;;;;;;5331688;26;19996;-82
2024/04/22 07:42:53;;;;;;;2.60;1.85;;;8.90;97.60;;;;;;5324697;26;20069;-82
2024/04/22 07:45:19;;;;;;;2.88;2.00;;;8.90;97.60;;;;;;5376313;26;19996;-82
2024/04/22 07:47:45;;;;;;;3.33;1.95;;;9.00;97.50;;;;;;5311909;26;20360;-82
2024/04/22 07:50:11;;;;;;;4.03;2.10;;;9.10;97.60;;;;;;5379394;26;20007;-82
2024/04/22 07:52:38;;;;;;;3.47;2.05;;;9.20;97.50;;;;;;5356110;26;20004;-82
2024/04/22 07:55:05;;;;;;;3.17;1.75;;;9.20;97.30;;;;;;5290668;26;20448;-82
2024/04/22 07:57:31;;;;;;;3.35;2.08;;;9.30;97.30;;;;;;5312357;26;20073;-82
2024/04/22 07:59:56;;;;;;;3.60;2.10;;;9.40;97.20;;;;;;5347873;26;20406;-82
2024/04/22 08:02:22;;;;;;;5.22;1.83;;;9.40;97.00;;;;;;5353807;26;20448;-82
2024/04/22 08:04:49;;;;;;;4.18;1.60;;;9.50;96.90;;;;;;5384220;26;20007;-82
2024/04/22 08:07:18;;;;;;;1.75;1.58;;;9.50;96.80;;;;;;5323361;26;20003;-82
2024/04/22 08:09:44;;;;;;;2.97;1.60;;;9.50;96.70;;;;;;5334952;26;20032;-81
2024/04/22 08:12:12;;;;;;;1.85;1.50;;;9.60;96.60;;;;;;5304357;26;20005;-82
2024/04/22 08:14:37;;;;;;;2.80;1.40;;;9.60;96.60;;;;;;5326460;26;20009;-82
2024/04/22 08:17:03;;;;;;;1.88;1.20;;;9.70;96.50;;;;;;5314386;26;19989;-82
2024/04/22 08:19:29;;;;;;;3.38;1.20;;;9.70;96.50;;;;;;5374744;26;20004;-80
2024/04/22 08:21:54;;;;;;;3.28;1.40;;;9.80;96.60;;;;;;5350020;26;20005;-81
2024/04/22 08:24:21;;;;;;;3.33;1.40;;;9.90;96.50;;;;;;5377833;26;19997;-82
2024/04/22 08:26:47;;;;;;;2.17;1.50;;;9.90;96.30;;;;;;5318743;26;20333;-82
2024/04/22 08:29:15;;;;;;;2.75;1.50;;;9.90;96.30;;;;;;5354556;26;20011;-82
2024/04/22 08:31:42;;;;;;;3.65;1.77;;;10.00;96.20;;;;;;5326415;26;20032;-82
2024/04/22 08:34:08;;;;;;;2.22;1.33;;;10.00;96.20;;;;;;5290452;26;20005;-81
2024/04/22 08:36:34;;;;;;;1.95;1.30;;;10.10;96.20;;;;;;5290014;26;20004;-81
2024/04/22 08:38:59;;;;;;;2.03;1.27;;;10.10;96.00;;;;;;5307110;26;20339;-81
2024/04/22 08:41:25;;;;;;;3.20;1.40;;;10.20;95.80;;;;;;5318731;26;19993;-81
2024/04/22 08:43:51;;;;;;;4.88;1.55;;;10.20;95.50;;;;;;5316332;26;20019;-82
2024/04/22 08:46:17;;;;;;;2.47;1.40;;;10.10;95.20;;;;;;5325632;26;20470;-81
2024/04/22 08:48:43;;;;;;;2.05;1.35;;;10.10;95.10;;;;;;5336110;26;20012;-81
2024/04/22 08:51:09;;;;;;;3.30;1.27;;;10.10;95.10;;;;;;5348940;26;20434;-81
2024/04/22 08:53:34;;;;;;;3.20;1.58;;;10.10;95.10;;;;;;5318852;26;20074;-82
2024/04/22 08:56:01;;;;;;;3.17;1.38;;;10.00;94.90;;;;;;5289579;26;20451;-82
2024/04/22 08:58:27;;;;;;;2.83;1.42;;;10.00;95.00;;;;;;5349813;26;20000;-81
2024/04/22 09:00:52;;;;;;;3.10;1.27;;;10.00;94.90;;;;;;5262527;26;20008;-81
2024/04/22 09:03:18;;;;;;;2.47;1.60;;;10.10;95.10;;;;;;5290237;26;20004;-81
2024/04/22 09:05:43;;;;;;;3.45;1.70;;;10.10;94.90;;;;;;5375804;26;20046;-81
2024/04/22 09:08:09;;;;;;;3.97;1.60;;;10.10;95.00;;;;;;5345981;26;20012;-81
2024/04/22 09:10:38;;;;;;;3.35;1.30;;;10.20;95.10;;;;;;5346623;26;20003;-81
2024/04/22 09:13:04;;;;;;;3.90;1.20;;;10.30;95.10;;;;;;5345854;26;20001;-80
2024/04/22 09:15:30;;;;;;;2.05;1.20;;;10.30;95.10;;;;;;5285254;26;19997;-81
2024/04/22 09:17:55;;;;;;;2.22;1.25;;;10.40;94.80;;;;;;5346789;26;20040;-81
2024/04/22 09:20:34;;;;;;;2.03;1.40;;;10.40;94.90;;;;;;5334056;26;20031;-81
2024/04/22 09:23:00;;;;;;;3.55;1.50;;;10.50;94.70;;;;;;5339478;26;20007;-81
2024/04/22 09:25:26;;;;;;;2.28;1.00;;;10.40;94.70;;;;;;5348773;26;20364;-81
2024/04/22 09:27:53;;;;;;;1.90;1.13;;;10.60;94.80;;;;;;5319449;26;20327;-81
2024/04/22 09:30:21;;;;;;;3.22;1.10;;;10.60;94.70;;;;;;5375720;26;20013;-81
2024/04/22 09:32:53;;;;;;;2.70;1.20;;;10.70;94.80;;;;;;5349500;26;20487;-82
2024/04/22 09:35:21;;;;;;;3.47;1.20;;;10.80;94.30;;;;;;5330392;26;20072;-81
2024/04/22 09:37:50;;;;;;;4.28;1.45;;;10.80;94.20;;;;;;5353463;26;20000;-82
2024/04/22 09:40:17;;;;;;;2.03;1.10;;;10.80;94.30;;;;;;5352420;26;19997;-82
2024/04/22 09:42:44;;;;;;;2.30;1.30;;;10.90;94.40;;;;;;5366647;26;20003;-82
2024/04/22 09:45:12;;;;;;;3.28;1.40;;;10.90;94.00;;;;;;5405079;26;19996;-81
2024/04/22 09:47:40;;;;;;;2.05;1.27;;;10.90;94.20;;;;;;5405931;26;20000;-81
2024/04/22 09:50:09;;;;;;;2.80;1.15;;;11.00;94.30;;;;;;5373825;26;19992;-82
2024/04/22 09:52:36;;;;;;;1.67;1.23;;;11.10;94.20;;;;;;5329419;26;20029;-81
2024/04/22 09:55:03;;;;;;;4.32;1.33;;;11.20;94.20;;;;;;5332764;26;20451;-82
2024/04/22 09:57:47;;;;;;;2.80;1.52;;;11.20;94.00;;;;;;5348363;26;20070;-81
2024/04/22 10:00:15;;;;;;;2.85;1.50;;;11.10;93.90;;;;;;5317650;26;19996;-83
2024/04/22 10:02:44;;;;;;;2.63;1.58;;;10.90;93.80;;;;;;5274350;26;20016;-82
2024/04/22 10:05:11;;;;;;;2.53;1.55;;;10.70;94.00;;;;;;5304134;26;19993;-83
2024/04/22 10:07:39;;;;;;;3.90;1.80;;;10.50;94.50;;;;;;5363481;26;20005;-82
2024/04/22 10:10:09;;;;;;;1.65;1.50;;;10.40;94.70;;;;;;5341457;26;20000;-82
2024/04/22 10:12:35;;;;;;;3.22;1.50;;;10.40;94.90;;;;;;5351966;26;20019;-82
2024/04/22 10:15:12;;;;;;;2.35;1.40;;;10.40;95.10;;;;;;5343803;26;20005;-81
2024/04/22 10:17:38;;;;;;;2.38;1.48;;;10.50;95.40;;;;;;5347068;26;20000;-82
2024/04/22 10:20:06;;;;;;;4.70;1.92;;;10.60;95.50;;;;;;5323962;26;20001;-82
2024/04/22 10:22:34;;;;;;;2.42;1.83;;;10.60;95.70;;;;;;5323703;26;20066;-82
2024/04/22 10:25:05;;;;;;;3.17;1.67;;;10.70;95.90;;;;;;5349791;26;20011;-82
2024/04/22 10:27:31;;;;;;;3.50;1.83;;;10.80;96.00;;;;;;5344045;26;20034;-82
2024/04/22 10:29:58;;;;;;;4.47;1.90;;;10.70;95.70;;;;;;5323052;26;20393;-82
2024/04/22 10:32:24;;;;;;;2.20;1.50;;;10.70;95.80;;;;;;5317316;26;20082;-81
2024/04/22 10:34:53;;;;;;;3.72;1.70;;;10.70;95.90;;;;;;5326900;26;19996;-82
2024/04/22 10:37:19;;;;;;;2.15;1.40;;;10.80;95.80;;;;;;5333913;26;20435;-81
2024/04/22 10:39:45;;;;;;;3.38;1.67;;;10.90;95.80;;;;;;5337352;26;20010;-82
2024/04/22 10:42:12;;;;;;;3.05;1.75;;;11.00;95.70;;;;;;5345058;26;19996;-81
2024/04/22 10:44:38;;;;;;;2.55;1.90;;;10.90;95.50;;;;;;5343552;26;20035;-82
2024/04/22 10:47:06;;;;;;;3.85;2.35;;;10.90;95.40;;;;;;5340486;26;20317;-81
2024/04/22 10:49:32;;;;;;;3.90;1.92;;;10.90;95.40;;;;;;5325906;26;20092;-81
2024/04/22 10:51:59;;;;;;;2.80;2.00;;;11.00;95.50;;;;;;5313184;26;20006;-82
2024/04/22 10:54:25;;;;;;;2.78;2.10;;;11.10;95.60;;;;;;5332921;26;20002;-82
2024/04/22 10:56:51;;;;;;;3.53;2.13;;;11.20;95.50;;;;;;5322515;26;20012;-82
2024/04/22 10:59:18;;;;;;;3.28;2.30;;;11.10;95.10;;;;;;5312276;26;19997;-81
2024/04/22 11:01:44;;;;;;;3.03;2.35;;;11.10;95.10;;;;;;5335421;26;20137;-81
2024/04/22 11:04:11;;;;;;;3.97;1.98;;;11.00;95.10;;;;;;5310854;26;20511;-82
2024/04/22 11:06:37;;;;;;;3.63;2.30;;;11.10;95.10;;;;;;5322429;26;20063;-81
2024/04/22 11:09:04;;;;;;;3.60;2.08;;;11.00;94.90;;;;;;5345806;26;20008;-82
2024/04/22 11:11:35;;;;;;;3.95;1.90;;;11.00;94.70;;;;;;5311333;26;20009;-81
2024/04/22 11:14:01;;;;;;;2.47;1.80;;;11.00;94.70;;;;;;5356456;26;19985;-81
2024/04/22 11:16:27;;;;;;;2.70;1.50;;;11.00;94.70;;;;;;5336731;26;19989;-80
2024/04/22 11:19:04;;;;;;;2.25;1.70;;;11.10;94.50;;;;;;5363541;26;19994;-82
2024/04/22 11:21:30;;;;;;;1.80;1.70;;;11.10;93.90;;;;;;5343982;26;19993;-82
2024/04/22 11:23:57;;;;;;;2.20;1.60;;;11.10;93.40;;;;;;5334354;27;19989;-82
2024/04/22 11:26:24;;;;;;;3.00;1.55;;;11.10;93.00;;;;;;5332060;26;20075;-81
2024/04/22 11:28:52;;;;;;;3.08;1.60;;;11.00;92.20;;;;;;5320423;26;20006;-81
2024/04/22 11:31:21;;;;;;;2.60;1.80;;;11.00;92.10;;;;;;5310677;26;20068;-81
2024/04/22 11:33:47;;;;;;;2.58;1.80;;;11.00;91.90;;;;;;5344653;26;20016;-82
2024/04/22 11:36:15;;;;;;;2.75;1.63;;;11.00;91.90;;;;;;5341548;26;19993;-82
2024/04/22 11:38:41;;;;;;;2.33;1.50;;;11.10;92.10;;;;;;5381312;26;19996;-81
2024/04/22 11:41:08;;;;;;;1.77;1.50;;;11.10;92.10;;;;;;5322135;26;20341;-81
2024/04/22 11:43:34;;;;;;;3.00;2.00;;;11.20;92.00;;;;;;5342351;26;20002;-81
2024/04/22 11:46:00;;;;;;;3.67;1.90;;;11.20;91.20;;;;;;5346173;26;20012;-82
2024/04/22 11:48:26;;;;;;;4.00;2.17;;;11.00;90.70;;;;;;5319639;26;19993;-81
2024/04/22 11:50:52;;;;;;;3.40;1.80;;;10.90;90.60;;;;;;5326145;26;20012;-81
2024/04/22 11:53:18;;;;;;;3.20;1.75;;;10.80;91.00;;;;;;5346134;26;20029;-81
2024/04/22 11:55:43;;;;;;;2.00;1.80;;;10.80;91.30;;;;;;5287185;26;20448;-82
2024/04/22 11:58:09;;;;;;;2.78;1.60;;;10.70;91.30;;;;;;5317115;26;19992;-82
2024/04/22 12:00:35;;;;;;;1.65;1.30;;;10.80;91.40;;;;;;5287362;26;20074;-81
2024/04/22 12:03:01;;;;;;;2.55;1.38;;;10.80;91.20;;;;;;5294753;26;19997;-82
2024/04/22 12:05:26;;;;;;;1.63;1.30;;;10.90;90.60;;;;;;5303696;26;20005;-82
2024/04/22 12:07:52;;;;;;;2.50;1.60;;;10.90;89.60;;;;;;5321029;26;20335;-82
2024/04/22 12:10:21;;;;;;;2.75;1.67;;;11.00;90.00;;;;;;5290867;26;20427;-82
2024/04/22 12:12:47;;;;;;;3.30;1.70;;;11.10;89.00;;;;;;5349123;26;20071;-82
2024/04/22 12:15:13;;;;;;;2.53;1.40;;;11.20;87.10;;;;;;5378357;26;20432;-82
2024/04/22 12:17:38;;;;;;;2.55;1.60;;;11.20;85.00;;;;;;5347522;26;20008;-82
2024/04/22 12:20:04;;;;;;;2.17;1.77;;;11.20;83.70;;;;;;5352232;26;20365;-82
2024/04/22 12:22:30;;;;;;;2.58;1.52;;;11.10;83.40;;;;;;5331399;26;19999;-82
2024/04/22 12:24:56;;;;;;;2.45;1.40;;;11.00;82.90;;;;;;5328448;26;19997;-82
2024/04/22 12:27:23;;;;;;;2.08;1.33;;;11.00;83.00;;;;;;5347454;26;20011;-83
2024/04/22 12:29:50;;;;;;;1.70;1.40;;;11.10;83.40;;;;;;5314040;26;20070;-82
2024/04/22 12:32:16;;;;;;;2.38;1.70;;;11.20;82.80;;;;;;5354154;26;19996;-82
2024/04/22 12:34:41;;;;;;;3.08;1.83;;;11.30;83.00;;;;;;5352316;26;20011;-83
2024/04/22 12:37:07;;;;;;;1.85;1.30;;;11.40;82.40;;;;;;5353210;26;20070;-82
2024/04/22 12:39:32;;;;;;;2.88;1.30;;;11.40;78.50;;;;;;5384174;26;19996;-82
2024/04/22 12:41:58;;;;;;;1.88;1.00;;;11.40;76.90;;;;;;5353992;26;20478;-82
2024/04/22 12:44:23;;;;;;;1.77;1.30;;;11.50;76.00;;;;;;5335768;26;20000;-82
2024/04/22 12:52:20;;;;;;;1.10;1.00;;;11.50;76.90;;;;;;5344022;26;20096;-81
2024/04/22 12:54:46;;;;;;;1.98;1.10;;;11.60;77.70;;;;;;5321486;26;20310;-81
2024/04/22 12:57:11;;;;;;;2.78;1.27;;;11.60;77.80;;;;;;5305119;26;20011;-82
2024/04/22 12:59:37;;;;;;;2.60;1.63;;;11.60;77.70;;;;;;5343178;26;19992;-82